createdAt,value
2019-06-20T00:00:34.469Z,9.65
2019-06-20T00:05:39.417Z,9.15
2019-06-20T00:10:44.721Z,8.73
2019-06-20T00:15:49.752Z,7.58
2019-06-20T00:20:54.918Z,13.83
2019-06-20T00:25:59.972Z,8.13
2019-06-20T00:31:04.961Z,6.40
2019-06-20T00:36:10.031Z,6.75
2019-06-20T00:41:16.933Z,4.97
2019-06-20T00:46:24.242Z,7.20
2019-06-20T00:51:29.236Z,8.33
2019-06-20T00:56:37.421Z,8.25
2019-06-20T01:01:42.324Z,7.22
2019-06-20T01:06:47.204Z,7.92
2019-06-20T01:11:51.954Z,6.15
2019-06-20T01:16:56.960Z,5.92
2019-06-20T01:22:02.065Z,7.75
2019-06-20T01:27:07.423Z,4.55
2019-06-20T01:32:12.233Z,6.12
2019-06-20T01:37:17.069Z,6.00
2019-06-20T01:42:24.890Z,3.98
2019-06-20T01:47:29.629Z,6.00
2019-06-20T01:52:39.224Z,6.65
2019-06-20T01:57:44.102Z,7.87
2019-06-20T02:02:48.902Z,4.78
2019-06-20T02:07:53.656Z,4.30
2019-06-20T02:12:58.489Z,6.70
2019-06-20T02:18:04.025Z,6.58
2019-06-20T02:23:09.002Z,6.30
2019-06-20T02:28:13.972Z,4.90
2019-06-20T02:33:18.881Z,7.65
2019-06-20T02:38:23.778Z,5.08
2019-06-20T02:43:34.599Z,4.95
2019-06-20T02:48:39.524Z,7.58
2019-06-20T02:53:44.840Z,9.53
2019-06-20T02:58:49.857Z,6.53
2019-06-20T03:03:54.617Z,7.37
2019-06-20T03:08:59.539Z,7.85
2019-06-20T03:14:05.218Z,7.52
2019-06-20T03:19:10.935Z,8.88
2019-06-20T03:24:15.714Z,5.30
2019-06-20T03:29:21.440Z,8.53
2019-06-20T03:34:26.264Z,8.55
2019-06-20T03:39:31.013Z,7.67
2019-06-20T03:44:35.994Z,4.85
2019-06-20T03:49:40.735Z,7.33
2019-06-20T03:54:45.603Z,9.15
2019-06-20T03:59:50.717Z,8.63
2019-06-20T04:04:55.771Z,13.83
2019-06-20T04:10:00.511Z,9.78
2019-06-20T04:15:18.626Z,6.45
2019-06-20T04:20:12.718Z,8.03
2019-06-20T04:25:17.500Z,6.63
2019-06-20T04:30:24.808Z,7.62
2019-06-20T04:35:29.648Z,7.53
2019-06-20T04:40:34.449Z,11.15
2019-06-20T04:45:45.041Z,11.08
2019-06-20T04:50:50.071Z,14.47
2019-06-20T04:55:54.833Z,8.93
2019-06-20T05:00:59.727Z,7.65
2019-06-20T05:06:04.672Z,7.72
2019-06-20T05:11:09.490Z,11.57
2019-06-20T05:16:14.468Z,7.97
2019-06-20T05:21:22.358Z,7.57
2019-06-20T05:26:27.952Z,7.83
2019-06-20T05:31:33.126Z,8.18
2019-06-20T05:36:38.003Z,6.50
2019-06-20T05:41:45.010Z,5.85
2019-06-20T05:46:49.892Z,8.70
2019-06-20T05:51:54.646Z,9.40
2019-06-20T05:57:03.321Z,6.92
2019-06-20T06:02:06.212Z,7.37
2019-06-20T06:07:14.043Z,7.40
2019-06-20T06:12:17.476Z,9.95
2019-06-20T06:17:22.338Z,7.42
2019-06-20T06:22:27.048Z,8.88
2019-06-20T06:27:41.983Z,9.65
2019-06-20T06:32:46.796Z,9.75
2019-06-20T06:37:51.606Z,7.17
2019-06-20T06:42:56.330Z,9.18
2019-06-20T06:48:01.322Z,8.43
2019-06-20T06:53:06.331Z,6.00
2019-06-20T06:58:11.444Z,5.33
2019-06-20T07:03:16.239Z,9.03
2019-06-20T07:08:22.971Z,6.28
2019-06-20T07:13:33.958Z,4.70
2019-06-20T07:18:38.814Z,6.37
2019-06-20T07:23:43.698Z,5.37
2019-06-20T07:28:58.709Z,7.12
2019-06-20T07:34:03.558Z,6.08
2019-06-20T07:39:10.250Z,5.98
2019-06-20T07:44:15.452Z,7.43
2019-06-20T07:49:20.345Z,6.80
2019-06-20T07:54:25.883Z,8.58
2019-06-20T07:59:30.924Z,6.83
2019-06-20T08:04:36.626Z,8.68
2019-06-20T08:09:45.041Z,5.83
2019-06-20T08:14:48.092Z,6.25
2019-06-20T08:19:52.905Z,6.92
2019-06-20T08:24:59.043Z,7.60
2019-06-20T08:30:07.321Z,8.08
2019-06-20T08:35:22.312Z,7.87
2019-06-20T08:40:28.162Z,7.05
2019-06-20T08:45:34.053Z,9.43
2019-06-20T08:50:38.904Z,8.25
2019-06-20T08:55:43.676Z,6.15
2019-06-20T09:00:48.698Z,9.28
2019-06-20T09:05:56.398Z,6.35
2019-06-20T09:11:01.753Z,7.33
2019-06-20T09:16:06.793Z,6.20
2019-06-20T09:21:17.944Z,6.47
2019-06-20T09:26:22.905Z,6.73
2019-06-20T09:31:27.903Z,9.43
2019-06-20T09:36:32.774Z,8.88
2019-06-20T09:41:37.847Z,5.60
2019-06-20T09:46:42.672Z,5.47
2019-06-20T09:51:48.603Z,5.85
2019-06-20T09:56:55.399Z,9.60
2019-06-20T10:02:00.796Z,5.42
2019-06-20T10:07:08.220Z,8.37
2019-06-20T10:12:19.263Z,5.70
2019-06-20T10:17:24.040Z,11.15
2019-06-20T10:22:28.978Z,9.18
2019-06-20T10:27:36.755Z,5.95
2019-06-20T10:32:42.336Z,6.58
2019-06-20T10:37:48.379Z,4.70
2019-06-20T10:42:54.090Z,8.93
2019-06-20T10:47:58.864Z,7.70
2019-06-20T10:53:05.674Z,5.42
2019-06-20T10:58:11.600Z,6.92
2019-06-20T11:03:16.540Z,8.48
2019-06-20T11:08:21.388Z,8.20
2019-06-20T11:13:26.245Z,6.30
2019-06-20T11:18:31.347Z,5.83
2019-06-20T11:23:36.465Z,6.33
2019-06-20T11:28:42.734Z,7.92
2019-06-20T11:33:48.426Z,5.28
2019-06-20T11:38:53.507Z,7.17
2019-06-20T11:43:58.257Z,5.08
2019-06-20T11:49:03.032Z,6.28
2019-06-20T11:54:08.126Z,5.08
2019-06-20T11:59:13.083Z,5.20
2019-06-20T12:04:18.188Z,5.08
2019-06-20T12:09:23.203Z,5.87
2019-06-20T12:14:28.254Z,4.97
2019-06-20T12:19:33.093Z,5.55
2019-06-20T12:24:41.674Z,3.90
2019-06-20T12:29:49.261Z,5.30
2019-06-20T12:34:54.177Z,5.40
2019-06-20T12:39:59.003Z,5.08
2019-06-20T12:45:04.115Z,4.90
2019-06-20T12:50:09.235Z,4.05
2019-06-20T12:55:14.351Z,4.97
2019-06-20T13:00:24.546Z,4.05
2019-06-20T13:05:29.426Z,5.47
2019-06-20T13:10:34.241Z,3.85
2019-06-20T13:15:40.594Z,4.35
2019-06-20T13:20:46.512Z,6.05
2019-06-20T13:25:52.235Z,3.85
2019-06-20T13:30:57.180Z,8.78
2019-06-20T13:36:01.909Z,6.15
2019-06-20T13:41:06.691Z,4.25
2019-06-20T13:46:11.561Z,6.22
2019-06-20T13:51:18.759Z,5.87
2019-06-20T13:56:24.924Z,7.60
2019-06-20T14:01:29.806Z,9.28
2019-06-20T14:06:34.615Z,8.53
2019-06-20T14:11:40.059Z,5.30
2019-06-20T14:16:46.462Z,3.98
2019-06-20T14:21:51.224Z,4.97
2019-06-20T14:26:55.983Z,5.22
2019-06-20T14:32:00.975Z,4.72
2019-06-20T14:37:10.555Z,5.45
2019-06-20T14:42:15.500Z,9.05
2019-06-20T14:47:22.544Z,7.12
2019-06-20T14:52:27.506Z,6.45
2019-06-20T14:57:32.866Z,7.90
2019-06-20T15:02:39.012Z,7.85
2019-06-20T15:07:47.280Z,8.15
2019-06-20T15:12:53.780Z,6.35
2019-06-20T15:17:59.313Z,7.22
2019-06-20T15:23:04.839Z,9.25
2019-06-20T15:28:09.864Z,7.30
2019-06-20T15:33:14.737Z,7.93
2019-06-20T15:38:19.626Z,7.25
2019-06-20T15:43:24.623Z,7.00
2019-06-20T15:48:29.395Z,6.22
2019-06-20T15:53:34.232Z,6.37
2019-06-20T15:58:44.970Z,7.12
2019-06-20T16:03:50.506Z,12.13
2019-06-20T16:08:55.564Z,9.10
2019-06-20T16:14:00.476Z,7.05
2019-06-20T16:19:05.660Z,7.20
2019-06-20T16:24:12.755Z,5.10
2019-06-20T16:29:18.062Z,4.80
2019-06-20T16:34:23.017Z,5.78
2019-06-20T16:39:27.894Z,4.80
2019-06-20T16:44:32.809Z,7.72
2019-06-20T16:49:37.822Z,5.87
2019-06-20T16:54:42.669Z,7.30
2019-06-20T16:59:47.671Z,6.70
2019-06-20T17:04:56.320Z,6.03
2019-06-20T17:09:59.804Z,5.60
2019-06-20T17:15:06.102Z,4.92
2019-06-20T17:20:11.272Z,5.20
2019-06-20T17:25:18.508Z,7.00
2019-06-20T17:30:26.444Z,6.17
2019-06-20T17:35:31.468Z,8.25
2019-06-20T17:40:36.594Z,6.03
2019-06-20T17:45:41.618Z,5.58
2019-06-20T17:50:48.429Z,5.80
2019-06-20T17:55:53.430Z,7.00
2019-06-20T18:00:58.613Z,6.30
2019-06-20T18:06:03.736Z,7.50
2019-06-20T18:11:08.894Z,7.17
2019-06-20T18:16:24.580Z,5.13
2019-06-20T18:21:20.363Z,6.17
2019-06-20T18:26:25.317Z,6.45
2019-06-20T18:31:30.280Z,6.85
2019-06-20T18:36:35.055Z,6.40
2019-06-20T18:41:39.911Z,7.80
2019-06-20T18:46:44.744Z,6.65
2019-06-20T18:51:50.995Z,8.08
2019-06-20T18:56:56.471Z,8.50
2019-06-20T19:02:01.777Z,8.40
2019-06-20T19:07:07.120Z,8.17
2019-06-20T19:12:12.392Z,7.37
2019-06-20T19:17:17.454Z,7.60
2019-06-20T19:22:22.593Z,7.15
2019-06-20T19:27:44.750Z,9.53
2019-06-20T19:32:49.719Z,6.92
2019-06-20T19:37:55.827Z,9.03
2019-06-20T19:43:01.021Z,7.22
2019-06-20T19:48:07.346Z,8.80
2019-06-20T19:53:13.138Z,7.72
2019-06-20T19:58:18.056Z,7.60
2019-06-20T20:03:23.055Z,7.83
2019-06-20T20:08:28.259Z,8.38
2019-06-20T20:13:33.000Z,7.80
2019-06-20T20:18:37.750Z,7.22
2019-06-20T20:23:42.510Z,8.98
2019-06-20T20:28:51.360Z,8.98
2019-06-20T20:33:56.096Z,10.15
2019-06-20T20:39:00.847Z,12.43
2019-06-20T20:44:07.318Z,8.80
2019-06-20T20:49:12.027Z,7.80
2019-06-20T20:54:17.415Z,10.13
2019-06-20T20:59:22.803Z,8.63
2019-06-20T21:04:27.580Z,9.60
2019-06-20T21:09:38.367Z,10.55
2019-06-20T21:14:43.096Z,16.37
2019-06-20T21:19:47.925Z,16.55
2019-06-20T21:24:52.887Z,11.08
2019-06-20T21:29:58.926Z,12.35
2019-06-20T21:35:04.509Z,12.60
2019-06-20T21:40:11.456Z,10.65
2019-06-20T21:45:16.734Z,17.12
2019-06-20T21:50:21.661Z,15.00
2019-06-20T21:55:26.918Z,11.20
2019-06-20T22:00:39.004Z,11.00
2019-06-20T22:05:45.791Z,11.97
2019-06-20T22:10:51.579Z,11.45
2019-06-20T22:15:56.383Z,13.38
2019-06-20T22:21:03.089Z,12.60
2019-06-20T22:26:08.185Z,12.10
2019-06-20T22:31:13.089Z,12.70
2019-06-20T22:36:17.889Z,13.90
2019-06-20T22:41:22.984Z,15.70
2019-06-20T22:46:28.972Z,15.35
2019-06-20T22:51:33.785Z,15.50
2019-06-20T22:56:38.740Z,13.47
2019-06-20T23:01:54.795Z,14.58
2019-06-20T23:06:59.676Z,14.33
2019-06-20T23:12:04.663Z,12.30
2019-06-20T23:17:09.632Z,12.00
2019-06-20T23:22:14.710Z,12.45
2019-06-20T23:27:19.459Z,19.70
2019-06-20T23:32:24.317Z,11.35
2019-06-20T23:37:29.388Z,14.20
2019-06-20T23:42:34.133Z,16.32
2019-06-20T23:47:38.855Z,10.50
2019-06-20T23:52:45.349Z,12.70
2019-06-20T23:57:50.289Z,9.73
